Terminal Aerodrome Forecast
Issued by NWS

Home | Current Version | Previous Version | Text Only | Print | Product List | Glossary On
Versions: 1 2 3 4 5 6 7 8 9 10 11 12
000
FTAK31 PAFA 040528
TAFABT
TAF
PABT 040528Z 0406/0506 18005KT P6SM VCSH BKN045 BKN080
     FM042000 35005KT 5SM -SHRA BKN035 OVC050=

USA.gov is the U.S. government's official web portal to all federal, state and local government web resources and services.